Latest Weather Observations for Grove

IDT60801

Issued at 6:01 am EST Tuesday 31 May 2016 (issued every 30 minutes, with the page automatically refreshed every 10 minutes)

About weather observations | Map of weather stations | Latest weather observations for TAS | Other Formats
Station Details ID: 094220 Name: GROVE (RESEARCH STATION) Lat: -42.99 Lon: 147.07 Height: 65.0 m
Data from the previous 72 hours. | See also: Recent months at Grove
Date/Time
EST
Temp
°C
App
Temp
°C
Dew
Point
Rel
Hum
%
Delta-T
°C
Wind Press
QNH
hPa
Press
MSL
hPa
Rain
since 9 am
mm
Dir
 
Spd
km/h
Gust
km/h
Spd
kts
Gust
kts
31/06:00am -0.3 - - - - CALM 0 0 0 0 - - 0.0
31/05:30am -0.4 - - - - CALM 0 0 0 0 - - 0.0
31/05:00am -1.0 - - - - CALM 0 0 0 0 - - 0.0
31/04:30am -1.5 - - - - CALM 0 0 0 0 - - 0.0
31/04:00am -1.8 - - - - CALM 0 0 0 0 - - 0.0
31/03:30am -1.8 - - - - CALM 0 0 0 0 - - 0.0
31/03:00am -1.6 - - - - CALM 0 0 0 0 - - 0.0
31/02:30am -1.5 - - - - CALM 0 0 0 0 - - 0.0
31/02:00am -1.1 - - - - CALM 0 0 0 0 - - 0.0
31/01:30am -1.2 - - - - N 4 7 2 4 - - 0.0
31/01:00am -0.9 - - - - CALM 0 0 0 0 - - 0.0
31/12:30am -0.7 - - - - CALM 0 0 0 0 - - 0.0
31/12:00am -0.2 - - - - CALM 0 0 0 0 - - 0.0
 
Date/Time
EST
Temp
°C
App
Temp
°C
Dew
Point
Rel
Hum
%
Delta-T
°C
Wind Press
QNH
hPa
Press
MSL
hPa
Rain
since 9 am
mm
Dir
 
Spd
km/h
Gust
km/h
Spd
kts
Gust
kts
30/11:30pm 0.2 - - - - CALM 0 0 0 0 - - 0.0
30/11:00pm 0.5 - - - - CALM 0 0 0 0 - - 0.0
30/10:30pm 0.9 -0.9 0.9 100 0.0 CALM 0 0 0 0 - - 0.0
30/10:00pm 1.6 -1.3 1.3 98 0.1 N 6 7 3 4 - - 0.0
30/09:30pm 2.1 -0.9 2.1 100 0.0 NNE 7 7 4 4 - - 0.0
30/09:00pm 2.6 -0.4 2.3 98 0.1 NE 7 11 4 6 - - 0.0
30/08:30pm 3.2 0.6 3.0 99 0.1 NE 6 7 3 4 - - 0.0
30/08:00pm 3.8 1.0 3.3 97 0.2 NE 7 9 4 5 - - 0.0
30/07:30pm 5.0 2.6 4.5 97 0.2 NNE 6 6 3 3 - - 0.0
30/07:00pm 5.9 3.6 4.7 92 0.5 ENE 6 11 3 6 - - 0.0
30/06:30pm 6.2 5.0 4.6 89 0.7 CALM 0 0 0 0 - - 0.0
30/06:00pm 6.3 5.2 5.2 93 0.5 CALM 0 0 0 0 - - 0.0
30/05:30pm 6.4 5.3 5.0 91 0.6 CALM 0 0 0 0 - - 0.0
30/05:00pm 6.6 5.4 4.8 88 0.8 CALM 0 0 0 0 - - 0.0
30/04:30pm 6.6 5.0 4.3 85 1.0 NNW 2 6 1 3 - - 0.0
30/04:00pm 6.9 4.2 3.6 79 1.4 W 7 9 4 5 - - 0.0
30/03:30pm 7.9 5.0 2.7 69 2.2 SW 7 11 4 6 - - 0.0
30/03:00pm 9.5 6.5 1.9 59 3.2 SSW 7 11 4 6 - - 0.0
30/02:30pm 10.3 8.3 2.3 57 3.4 NE 2 6 1 3 - - 0.0
30/02:00pm 9.3 6.2 1.6 58 3.2 NE 7 13 4 7 - - 0.0
30/01:30pm 9.3 5.5 1.9 60 3.1 N 11 13 6 7 - - 0.0
30/01:00pm 9.6 6.4 2.8 62 2.9 N 9 13 5 7 - - 0.0
30/12:30pm 8.3 5.8 1.8 63 2.7 WNW 4 7 2 4 - - 0.0
30/12:00pm 8.5 4.8 2.3 65 2.6 WNW 11 15 6 8 - - 0.0
30/11:30am 8.3 5.2 1.2 61 2.9 WNW 7 11 4 6 - - 0.0
30/11:00am 7.6 5.5 3.9 77 1.6 SW 4 6 2 3 - - 0.0
30/10:30am 7.3 5.0 5.0 85 1.0 SW 6 7 3 4 - - 0.0
30/10:00am 6.7 5.7 5.6 93 0.5 CALM 0 0 0 0 - - 0.0
30/09:30am 6.3 4.1 5.4 94 0.4 WSW 6 9 3 5 - - 0.0
30/09:00am 6.2 4.1 5.8 97 0.2 S 6 7 3 4 - - 2.4
30/08:30am 5.9 4.5 5.7 99 0.1 NW 2 6 1 3 - - 2.4
30/08:00am 5.7 4.7 5.5 99 0.1 CALM 0 0 0 0 - - 2.4
30/07:30am 5.9 4.9 5.7 99 0.1 CALM 0 0 0 0 - - 2.4
30/07:00am 5.9 4.9 5.7 99 0.1 CALM 0 0 0 0 - - 2.4
30/06:30am 5.9 4.9 5.7 99 0.1 CALM 0 0 0 0 - - 2.4
30/06:00am 6.0 5.0 5.8 99 0.1 CALM 0 0 0 0 - - 2.4
30/05:30am 5.9 4.9 5.7 99 0.1 CALM 0 0 0 0 - - 2.4
30/05:00am 5.8 4.7 5.1 95 0.3 CALM 0 0 0 0 - - 2.4
30/04:30am 6.6 4.2 5.2 91 0.6 WSW 7 13 4 7 - - 2.4
30/04:00am 6.6 5.0 6.2 97 0.2 SW 4 9 2 5 - - 2.4
30/03:30am 6.6 5.8 6.4 99 0.1 CALM 0 0 0 0 - - 2.4
30/03:00am 6.7 5.9 6.5 99 0.1 CALM 0 0 0 0 - - 2.4
30/02:30am 6.6 5.8 6.4 99 0.1 CALM 0 0 0 0 - - 2.4
30/02:00am 6.5 5.7 6.3 99 0.1 CALM 0 0 0 0 - - 2.4
30/01:30am 6.8 6.0 6.4 97 0.2 CALM 0 0 0 0 - - 2.4
30/01:00am 6.5 5.7 6.3 99 0.1 CALM 0 0 0 0 - - 2.4
30/12:30am 7.0 6.3 6.8 99 0.1 CALM 0 0 0 0 - - 2.4
30/12:00am 7.2 6.5 6.8 97 0.2 CALM 0 0 0 0 - - 2.4
 
Date/Time
EST
Temp
°C
App
Temp
°C
Dew
Point
Rel
Hum
%
Delta-T
°C
Wind Press
QNH
hPa
Press
MSL
hPa
Rain
since 9 am
mm
Dir
 
Spd
km/h
Gust
km/h
Spd
kts
Gust
kts
29/11:30pm 7.6 7.0 7.2 97 0.2 CALM 0 0 0 0 - - 2.4
29/11:00pm 8.0 7.5 7.8 99 0.1 CALM 0 0 0 0 - - 2.4
29/10:30pm 8.1 6.5 7.9 99 0.1 WSW 6 7 3 4 - - 2.4
29/10:00pm 8.2 7.8 8.2 100 0.0 CALM 0 0 0 0 - - 2.4
29/09:30pm 8.3 7.9 8.1 99 0.1 CALM 0 0 0 0 - - 2.4
29/09:00pm 8.2 7.7 7.8 97 0.2 CALM 0 0 0 0 - - 2.4
29/08:30pm 8.5 7.7 8.3 99 0.1 W 2 6 1 3 - - 2.2
29/08:00pm 8.2 7.4 8.0 99 0.1 W 2 6 1 3 - - 2.2
29/07:30pm 8.4 8.0 8.2 99 0.1 CALM 0 0 0 0 - - 2.2
29/07:00pm 8.5 8.1 8.1 97 0.2 CALM 0 0 0 0 - - 2.2
29/06:30pm 8.4 7.9 8.0 97 0.2 CALM 0 0 0 0 - - 2.2
29/06:00pm 8.9 8.6 8.5 97 0.2 CALM 0 0 0 0 - - 2.2
29/05:30pm 8.9 8.1 8.3 96 0.3 SW 2 7 1 4 - - 1.8
29/05:00pm 9.1 7.6 8.3 95 0.4 W 6 6 3 3 - - 1.4
29/04:30pm 9.5 9.1 8.1 91 0.7 CALM 0 7 0 4 - - 1.2
29/04:00pm 9.6 7.7 7.7 88 0.9 SSW 7 9 4 5 - - 1.2
29/03:30pm 9.8 7.9 7.7 87 1.0 WSW 7 11 4 6 - - 1.2
29/03:00pm 10.2 8.0 7.9 86 1.1 SSW 9 15 5 8 - - 1.2
29/02:30pm 11.0 9.2 7.9 81 1.5 SW 7 11 4 6 - - 1.2
29/02:00pm 10.5 8.7 8.0 84 1.2 S 7 9 4 5 - - 1.2
29/01:30pm 10.4 8.8 8.1 86 1.1 SSE 6 7 3 4 - - 1.2
29/01:00pm 10.7 10.0 8.5 86 1.1 W 2 6 1 3 - - 1.2
29/12:30pm 9.7 9.0 8.5 92 0.6 NNW 2 6 1 3 - - 1.2
29/12:00pm 9.3 8.9 8.1 92 0.6 CALM 0 4 0 2 - - 1.0
29/11:30am 9.1 7.3 8.1 93 0.5 E 7 9 4 5 - - 1.0
29/11:00am 8.5 7.6 7.9 96 0.3 E 2 6 1 3 - - 0.8
29/10:30am 8.5 8.0 7.9 96 0.3 CALM 0 6 0 3 - - 0.8
29/10:00am 8.0 6.4 7.8 99 0.1 NNE 6 9 3 5 - - 0.2
29/09:30am 7.7 6.0 7.5 99 0.1 NNE 6 7 3 4 - - 0.0
29/09:00am 7.5 6.9 7.3 99 0.1 CALM 0 0 0 0 - - 9.6
29/08:30am 6.9 6.1 6.7 99 0.1 CALM 0 0 0 0 - - 9.6
29/08:00am 6.6 5.8 6.6 100 0.0 CALM 0 0 0 0 - - 9.6
29/07:30am 6.7 5.9 6.5 99 0.1 CALM 0 0 0 0 - - 9.6
29/07:00am 6.8 4.9 6.6 99 0.1 NNE 6 7 3 4 - - 9.6
29/06:30am 6.8 4.7 6.8 100 0.0 ENE 7 9 4 5 - - 9.6
29/06:00am 6.6 4.7 6.6 100 0.0 NE 6 7 3 4 - - 9.6
29/05:30am 6.5 4.9 6.3 99 0.1 ENE 4 6 2 3 - - 9.4
29/05:00am 6.4 5.6 6.4 100 0.0 CALM 0 0 0 0 - - 9.0
29/04:30am 6.4 5.6 6.4 100 0.0 CALM 0 0 0 0 - - 8.6
29/04:00am 6.3 4.3 6.3 100 0.0 ESE 6 7 3 4 - - 8.2
29/03:30am 6.2 5.3 6.2 100 0.0 CALM 0 0 0 0 - - 8.0
29/03:00am 6.3 5.4 6.1 99 0.1 CALM 0 0 0 0 - - 7.8
29/02:30am 6.2 4.0 6.0 99 0.1 NE 7 7 4 4 - - 7.8
29/02:00am 6.1 5.2 5.9 99 0.1 CALM 0 6 0 3 - - 7.8
29/01:30am 6.1 5.2 5.9 99 0.1 CALM 0 0 0 0 - - 7.2
29/01:00am 6.1 5.2 5.9 99 0.1 CALM 0 0 0 0 - - 7.0
29/12:30am 6.0 5.1 6.0 100 0.0 CALM 0 0 0 0 - - 6.0
29/12:00am 5.9 5.0 5.9 100 0.0 CALM 0 0 0 0 - - 5.6
 
Date/Time
EST
Temp
°C
App
Temp
°C
Dew
Point
Rel
Hum
%
Delta-T
°C
Wind Press
QNH
hPa
Press
MSL
hPa
Rain
since 9 am
mm
Dir
 
Spd
km/h
Gust
km/h
Spd
kts
Gust
kts
28/11:30pm 5.9 4.5 5.7 99 0.1 NNE 2 7 1 4 - - 4.6
28/11:00pm 5.8 3.7 5.6 99 0.1 ENE 6 9 3 5 - - 4.6
28/10:30pm 5.6 4.2 5.6 100 0.0 N 2 9 1 5 - - 4.0
28/10:00pm 5.7 3.9 5.5 99 0.1 E 4 6 2 3 - - 3.0
28/09:30pm 5.3 3.4 5.1 99 0.1 NE 4 7 2 4 - - 2.0
28/09:00pm 5.0 2.7 4.8 99 0.1 NNE 6 7 3 4 - - 2.0
28/08:30pm 5.1 2.9 5.1 100 0.0 NNE 6 7 3 4 - - 2.0
28/08:00pm 5.1 2.8 4.9 99 0.1 NNE 6 7 3 4 - - 2.0
28/07:30pm 5.0 2.7 5.0 100 0.0 NNE 6 7 3 4 - - 2.0
28/07:00pm 4.9 2.6 4.7 99 0.1 N 6 7 3 4 - - 2.0
28/06:30pm 5.3 2.9 5.3 100 0.0 NNE 7 9 4 5 - - 2.0
28/06:00pm 6.3 4.3 6.1 99 0.1 N 6 9 3 5 - - 2.0
28/05:30pm 7.1 6.0 6.9 99 0.1 NE 2 6 1 3 - - 2.0
28/05:00pm 7.6 6.2 7.2 97 0.2 NNE 4 7 2 4 - - 2.0
28/04:30pm 8.3 6.5 7.2 93 0.5 N 6 7 3 4 - - 2.0
28/04:00pm 8.7 5.8 6.5 86 1.0 SSW 11 20 6 11 - - 0.6
28/03:30pm 10.0 8.1 6.8 80 1.5 W 6 7 3 4 - - 0.2
28/03:00pm 10.9 8.8 5.7 70 2.4 N 6 6 3 3 - - 0.2
28/02:30pm 11.0 8.7 5.8 70 2.4 NNE 7 9 4 5 - - 0.2
28/02:00pm 11.1 9.1 6.2 72 2.3 NNE 6 7 3 4 - - 0.2
28/01:30pm 11.3 9.5 5.2 66 2.8 E 4 9 2 5 - - 0.2
28/01:00pm 13.0 11.4 4.5 56 3.9 E 2 6 1 3 - - 0.2
28/12:30pm 11.4 8.9 4.6 63 3.1 WSW 7 9 4 5 - - 0.2
28/12:00pm 10.7 8.2 5.0 68 2.6 W 7 9 4 5 - - 0.2
28/11:30am 9.5 8.1 5.6 76 1.8 SW 2 7 1 4 - - 0.0
28/11:00am 8.4 7.3 5.3 81 1.4 CALM 0 0 0 0 - - 0.0
28/10:30am 7.4 6.3 4.9 84 1.1 CALM 0 0 0 0 - - 0.0
28/10:00am 4.8 2.3 3.8 93 0.4 SW 6 7 3 4 - - 0.0
28/09:30am 3.8 1.6 3.1 95 0.3 SW 4 6 2 3 - - 0.0
28/09:00am 2.7 0.0 2.4 98 0.1 NE 6 7 3 4 - - 0.0
28/08:30am 0.5 -2.2 0.5 100 0.0 N 4 7 2 4 - - 0.0
28/08:00am -0.3 - - - - N 6 7 3 4 - - 0.0
28/07:30am -0.4 - - - - NE 7 9 4 5 - - 0.0
28/07:00am -0.2 - - - - N 7 9 4 5 - - 0.0
28/06:30am 0.1 - - - - CALM 0 0 0 0 - - 0.0

Other Formats:

Comma delimited format used in spreadsheet applications
http://www.bom.gov.au/fwo/IDT60801/IDT60801.95977.axf

JavaScript Object Notation format (JSON) in row-major order
http://www.bom.gov.au/fwo/IDT60801/IDT60801.95977.json